sensor_id;sensor_type;location;lat;lon;timestamp;P1;durP1;ratioP1;P2;durP2;ratioP2
59571;SDS011;59406;45.602;11.904;2022-11-23T00:00:36;4.82;;;1.83;;
59571;SDS011;59406;45.602;11.904;2022-11-23T00:03:02;8.40;;;2.75;;
59571;SDS011;59406;45.602;11.904;2022-11-23T00:05:28;4.10;;;1.30;;
59571;SDS011;59406;45.602;11.904;2022-11-23T00:07:55;4.88;;;1.60;;
59571;SDS011;59406;45.602;11.904;2022-11-23T00:10:22;5.15;;;1.50;;
59571;SDS011;59406;45.602;11.904;2022-11-23T00:12:48;5.03;;;1.50;;
59571;SDS011;59406;45.602;11.904;2022-11-23T00:15:13;5.03;;;1.93;;
59571;SDS011;59406;45.602;11.904;2022-11-23T00:17:39;7.40;;;2.20;;
59571;SDS011;59406;45.602;11.904;2022-11-23T00:20:06;4.35;;;1.55;;
59571;SDS011;59406;45.602;11.904;2022-11-23T00:22:33;5.97;;;1.93;;
59571;SDS011;59406;45.602;11.904;2022-11-23T00:24:59;4.70;;;1.60;;
59571;SDS011;59406;45.602;11.904;2022-11-23T00:27:26;5.07;;;1.58;;
59571;SDS011;59406;45.602;11.904;2022-11-23T00:29:52;6.00;;;1.40;;
59571;SDS011;59406;45.602;11.904;2022-11-23T00:32:17;4.25;;;1.27;;
59571;SDS011;59406;45.602;11.904;2022-11-23T00:34:43;4.77;;;1.47;;
59571;SDS011;59406;45.602;11.904;2022-11-23T00:37:09;5.75;;;1.40;;
59571;SDS011;59406;45.602;11.904;2022-11-23T00:39:35;4.38;;;1.38;;
59571;SDS011;59406;45.602;11.904;2022-11-23T00:42:01;4.30;;;1.53;;
59571;SDS011;59406;45.602;11.904;2022-11-23T00:44:27;4.60;;;1.38;;
59571;SDS011;59406;45.602;11.904;2022-11-23T00:46:53;4.22;;;1.02;;
59571;SDS011;59406;45.602;11.904;2022-11-23T00:49:19;3.65;;;0.88;;
59571;SDS011;59406;45.602;11.904;2022-11-23T00:51:46;5.27;;;1.50;;
59571;SDS011;59406;45.602;11.904;2022-11-23T00:54:12;4.82;;;1.45;;
59571;SDS011;59406;45.602;11.904;2022-11-23T00:56:38;4.10;;;1.48;;
59571;SDS011;59406;45.602;11.904;2022-11-23T00:59:04;4.60;;;1.38;;
59571;SDS011;59406;45.602;11.904;2022-11-23T01:01:31;3.73;;;1.27;;
59571;SDS011;59406;45.602;11.904;2022-11-23T01:04:01;3.83;;;1.17;;
59571;SDS011;59406;45.602;11.904;2022-11-23T01:06:30;3.83;;;1.13;;
59571;SDS011;59406;45.602;11.904;2022-11-23T01:08:59;4.85;;;1.20;;
59571;SDS011;59406;45.602;11.904;2022-11-23T01:11:29;3.72;;;0.80;;
59571;SDS011;59406;45.602;11.904;2022-11-23T01:13:56;3.90;;;0.90;;
59571;SDS011;59406;45.602;11.904;2022-11-23T01:16:24;3.72;;;0.90;;
59571;SDS011;59406;45.602;11.904;2022-11-23T01:18:53;4.43;;;1.25;;
59571;SDS011;59406;45.602;11.904;2022-11-23T01:21:21;4.78;;;1.40;;
59571;SDS011;59406;45.602;11.904;2022-11-23T01:23:47;3.88;;;0.93;;
59571;SDS011;59406;45.602;11.904;2022-11-23T01:26:13;3.20;;;0.97;;
59571;SDS011;59406;45.602;11.904;2022-11-23T01:28:39;4.53;;;1.15;;
59571;SDS011;59406;45.602;11.904;2022-11-23T01:31:07;3.88;;;0.98;;
59571;SDS011;59406;45.602;11.904;2022-11-23T01:33:35;4.25;;;1.60;;
59571;SDS011;59406;45.602;11.904;2022-11-23T01:36:12;3.97;;;1.37;;
59571;SDS011;59406;45.602;11.904;2022-11-23T01:38:41;4.65;;;1.92;;
59571;SDS011;59406;45.602;11.904;2022-11-23T01:41:08;4.75;;;2.08;;
59571;SDS011;59406;45.602;11.904;2022-11-23T01:43:36;4.82;;;1.95;;
59571;SDS011;59406;45.602;11.904;2022-11-23T01:46:03;5.75;;;1.88;;
59571;SDS011;59406;45.602;11.904;2022-11-23T01:48:35;7.10;;;2.40;;
59571;SDS011;59406;45.602;11.904;2022-11-23T01:51:10;5.70;;;1.90;;
59571;SDS011;59406;45.602;11.904;2022-11-23T01:53:46;6.57;;;2.15;;
59571;SDS011;59406;45.602;11.904;2022-11-23T01:56:16;4.85;;;1.80;;
59571;SDS011;59406;45.602;11.904;2022-11-23T01:58:46;5.20;;;2.03;;
59571;SDS011;59406;45.602;11.904;2022-11-23T02:01:17;5.77;;;2.30;;
59571;SDS011;59406;45.602;11.904;2022-11-23T02:03:43;5.82;;;2.00;;
59571;SDS011;59406;45.602;11.904;2022-11-23T02:06:13;5.35;;;1.95;;
59571;SDS011;59406;45.602;11.904;2022-11-23T02:08:41;5.22;;;2.00;;
59571;SDS011;59406;45.602;11.904;2022-11-23T02:11:08;5.90;;;2.60;;
59571;SDS011;59406;45.602;11.904;2022-11-23T02:13:36;6.40;;;2.13;;
59571;SDS011;59406;45.602;11.904;2022-11-23T02:16:03;7.30;;;2.70;;
59571;SDS011;59406;45.602;11.904;2022-11-23T02:18:31;7.15;;;2.65;;
59571;SDS011;59406;45.602;11.904;2022-11-23T02:20:58;5.47;;;2.50;;
59571;SDS011;59406;45.602;11.904;2022-11-23T02:26:20;5.93;;;2.67;;
59571;SDS011;59406;45.602;11.904;2022-11-23T02:31:28;6.30;;;3.13;;
59571;SDS011;59406;45.602;11.904;2022-11-23T02:33:54;6.65;;;2.92;;
59571;SDS011;59406;45.602;11.904;2022-11-23T02:36:41;5.47;;;3.08;;
59571;SDS011;59406;45.602;11.904;2022-11-23T02:39:13;7.83;;;3.57;;
59571;SDS011;59406;45.602;11.904;2022-11-23T02:41:47;6.55;;;2.88;;
59571;SDS011;59406;45.602;11.904;2022-11-23T02:47:03;5.95;;;2.88;;
59571;SDS011;59406;45.602;11.904;2022-11-23T02:49:30;7.05;;;3.10;;
59571;SDS011;59406;45.602;11.904;2022-11-23T02:51:56;5.87;;;2.90;;
59571;SDS011;59406;45.602;11.904;2022-11-23T02:54:22;6.20;;;2.47;;
59571;SDS011;59406;45.602;11.904;2022-11-23T02:56:48;6.22;;;2.50;;
59571;SDS011;59406;45.602;11.904;2022-11-23T02:59:14;5.57;;;2.22;;
59571;SDS011;59406;45.602;11.904;2022-11-23T03:01:40;7.37;;;2.73;;
59571;SDS011;59406;45.602;11.904;2022-11-23T03:04:06;6.30;;;3.13;;
59571;SDS011;59406;45.602;11.904;2022-11-23T03:06:33;7.25;;;2.80;;
59571;SDS011;59406;45.602;11.904;2022-11-23T03:08:58;5.35;;;2.70;;
59571;SDS011;59406;45.602;11.904;2022-11-23T03:11:24;6.30;;;2.77;;
59571;SDS011;59406;45.602;11.904;2022-11-23T03:13:50;7.38;;;3.10;;
59571;SDS011;59406;45.602;11.904;2022-11-23T03:16:16;7.00;;;3.47;;
59571;SDS011;59406;45.602;11.904;2022-11-23T03:18:42;8.13;;;3.72;;
59571;SDS011;59406;45.602;11.904;2022-11-23T03:21:08;8.17;;;3.73;;
59571;SDS011;59406;45.602;11.904;2022-11-23T03:23:35;7.03;;;4.00;;
59571;SDS011;59406;45.602;11.904;2022-11-23T03:26:01;6.85;;;3.92;;
59571;SDS011;59406;45.602;11.904;2022-11-23T03:28:28;7.35;;;3.10;;
59571;SDS011;59406;45.602;11.904;2022-11-23T03:30:54;5.90;;;2.88;;
59571;SDS011;59406;45.602;11.904;2022-11-23T03:33:20;7.13;;;3.57;;
59571;SDS011;59406;45.602;11.904;2022-11-23T03:35:46;6.03;;;3.22;;
59571;SDS011;59406;45.602;11.904;2022-11-23T03:38:13;7.60;;;3.30;;
59571;SDS011;59406;45.602;11.904;2022-11-23T03:40:39;6.40;;;3.22;;
59571;SDS011;59406;45.602;11.904;2022-11-23T03:43:05;7.43;;;3.80;;
59571;SDS011;59406;45.602;11.904;2022-11-23T03:45:31;8.63;;;3.83;;
59571;SDS011;59406;45.602;11.904;2022-11-23T03:47:57;7.35;;;3.85;;
59571;SDS011;59406;45.602;11.904;2022-11-23T03:50:23;7.97;;;4.05;;
59571;SDS011;59406;45.602;11.904;2022-11-23T03:52:49;7.30;;;4.00;;
59571;SDS011;59406;45.602;11.904;2022-11-23T03:55:15;8.45;;;3.90;;
59571;SDS011;59406;45.602;11.904;2022-11-23T03:57:42;8.90;;;4.50;;
59571;SDS011;59406;45.602;11.904;2022-11-23T04:00:14;7.93;;;4.60;;
59571;SDS011;59406;45.602;11.904;2022-11-23T04:02:41;8.80;;;4.47;;
59571;SDS011;59406;45.602;11.904;2022-11-23T04:05:08;9.38;;;4.68;;
59571;SDS011;59406;45.602;11.904;2022-11-23T04:07:34;8.60;;;4.50;;
59571;SDS011;59406;45.602;11.904;2022-11-23T04:10:00;8.35;;;4.75;;
59571;SDS011;59406;45.602;11.904;2022-11-23T04:12:27;8.27;;;4.45;;
59571;SDS011;59406;45.602;11.904;2022-11-23T04:14:54;7.68;;;4.55;;
59571;SDS011;59406;45.602;11.904;2022-11-23T04:17:19;9.02;;;4.93;;
59571;SDS011;59406;45.602;11.904;2022-11-23T04:19:45;9.50;;;4.53;;
59571;SDS011;59406;45.602;11.904;2022-11-23T04:22:11;8.25;;;5.35;;
59571;SDS011;59406;45.602;11.904;2022-11-23T04:24:37;10.43;;;4.85;;
59571;SDS011;59406;45.602;11.904;2022-11-23T04:27:03;10.23;;;3.95;;
59571;SDS011;59406;45.602;11.904;2022-11-23T04:29:29;7.07;;;3.70;;
59571;SDS011;59406;45.602;11.904;2022-11-23T04:31:55;8.75;;;4.53;;
59571;SDS011;59406;45.602;11.904;2022-11-23T04:34:21;11.00;;;4.68;;
59571;SDS011;59406;45.602;11.904;2022-11-23T04:36:47;9.37;;;4.70;;
59571;SDS011;59406;45.602;11.904;2022-11-23T04:39:13;8.35;;;3.67;;
59571;SDS011;59406;45.602;11.904;2022-11-23T04:41:39;8.23;;;4.30;;
59571;SDS011;59406;45.602;11.904;2022-11-23T04:44:05;8.63;;;4.22;;
59571;SDS011;59406;45.602;11.904;2022-11-23T04:46:31;9.07;;;4.57;;
59571;SDS011;59406;45.602;11.904;2022-11-23T04:48:59;7.30;;;3.40;;
59571;SDS011;59406;45.602;11.904;2022-11-23T04:51:26;7.30;;;3.03;;
59571;SDS011;59406;45.602;11.904;2022-11-23T04:53:52;7.40;;;3.30;;
59571;SDS011;59406;45.602;11.904;2022-11-23T04:56:18;7.72;;;3.50;;
59571;SDS011;59406;45.602;11.904;2022-11-23T04:58:44;7.43;;;3.50;;
59571;SDS011;59406;45.602;11.904;2022-11-23T05:01:10;7.27;;;3.33;;
59571;SDS011;59406;45.602;11.904;2022-11-23T05:03:36;6.10;;;2.75;;
59571;SDS011;59406;45.602;11.904;2022-11-23T05:06:02;7.18;;;3.60;;
59571;SDS011;59406;45.602;11.904;2022-11-23T05:08:30;7.95;;;3.70;;
59571;SDS011;59406;45.602;11.904;2022-11-23T05:10:56;9.03;;;4.30;;
59571;SDS011;59406;45.602;11.904;2022-11-23T05:13:22;9.23;;;4.07;;
59571;SDS011;59406;45.602;11.904;2022-11-23T05:15:48;5.95;;;2.85;;
59571;SDS011;59406;45.602;11.904;2022-11-23T05:18:14;6.60;;;2.97;;
59571;SDS011;59406;45.602;11.904;2022-11-23T05:20:40;6.05;;;2.78;;
59571;SDS011;59406;45.602;11.904;2022-11-23T05:23:07;7.27;;;3.70;;
59571;SDS011;59406;45.602;11.904;2022-11-23T05:25:34;6.30;;;2.80;;
59571;SDS011;59406;45.602;11.904;2022-11-23T05:28:00;6.40;;;2.97;;
59571;SDS011;59406;45.602;11.904;2022-11-23T05:30:26;7.10;;;3.72;;
59571;SDS011;59406;45.602;11.904;2022-11-23T05:32:52;6.47;;;3.40;;
59571;SDS011;59406;45.602;11.904;2022-11-23T05:35:18;7.20;;;3.70;;
59571;SDS011;59406;45.602;11.904;2022-11-23T05:37:44;8.68;;;4.03;;
59571;SDS011;59406;45.602;11.904;2022-11-23T05:40:10;7.40;;;3.47;;
59571;SDS011;59406;45.602;11.904;2022-11-23T05:42:37;9.13;;;5.15;;
59571;SDS011;59406;45.602;11.904;2022-11-23T05:45:03;8.32;;;4.63;;
59571;SDS011;59406;45.602;11.904;2022-11-23T05:47:29;9.50;;;4.93;;
59571;SDS011;59406;45.602;11.904;2022-11-23T05:49:55;8.68;;;5.43;;
59571;SDS011;59406;45.602;11.904;2022-11-23T05:52:23;8.32;;;4.90;;
59571;SDS011;59406;45.602;11.904;2022-11-23T05:54:50;8.85;;;4.88;;
59571;SDS011;59406;45.602;11.904;2022-11-23T05:57:16;8.43;;;5.13;;
59571;SDS011;59406;45.602;11.904;2022-11-23T05:59:42;7.25;;;3.95;;
59571;SDS011;59406;45.602;11.904;2022-11-23T06:02:08;8.23;;;3.60;;
59571;SDS011;59406;45.602;11.904;2022-11-23T06:04:34;8.07;;;4.05;;
59571;SDS011;59406;45.602;11.904;2022-11-23T06:07:00;6.57;;;3.47;;
59571;SDS011;59406;45.602;11.904;2022-11-23T06:09:27;6.78;;;3.60;;
59571;SDS011;59406;45.602;11.904;2022-11-23T06:11:53;6.97;;;3.58;;
59571;SDS011;59406;45.602;11.904;2022-11-23T06:14:19;22.38;;;5.30;;
59571;SDS011;59406;45.602;11.904;2022-11-23T06:16:45;7.88;;;3.75;;
59571;SDS011;59406;45.602;11.904;2022-11-23T06:19:11;7.53;;;3.10;;
59571;SDS011;59406;45.602;11.904;2022-11-23T06:22:40;6.32;;;3.20;;
59571;SDS011;59406;45.602;11.904;2022-11-23T06:25:06;11.20;;;5.10;;
59571;SDS011;59406;45.602;11.904;2022-11-23T06:27:32;8.32;;;4.45;;
59571;SDS011;59406;45.602;11.904;2022-11-23T06:29:58;11.70;;;5.33;;
59571;SDS011;59406;45.602;11.904;2022-11-23T06:32:24;32.13;;;15.18;;
59571;SDS011;59406;45.602;11.904;2022-11-23T06:34:49;15.60;;;7.75;;
59571;SDS011;59406;45.602;11.904;2022-11-23T06:37:15;16.37;;;8.80;;
59571;SDS011;59406;45.602;11.904;2022-11-23T06:39:41;16.10;;;7.85;;
59571;SDS011;59406;45.602;11.904;2022-11-23T06:42:07;15.73;;;7.67;;
59571;SDS011;59406;45.602;11.904;2022-11-23T06:44:33;22.27;;;11.07;;
59571;SDS011;59406;45.602;11.904;2022-11-23T06:46:59;22.98;;;14.98;;
59571;SDS011;59406;45.602;11.904;2022-11-23T06:49:25;18.97;;;12.10;;
59571;SDS011;59406;45.602;11.904;2022-11-23T06:51:52;20.67;;;13.85;;
59571;SDS011;59406;45.602;11.904;2022-11-23T06:54:18;24.00;;;13.88;;
59571;SDS011;59406;45.602;11.904;2022-11-23T06:56:44;26.23;;;16.73;;
59571;SDS011;59406;45.602;11.904;2022-11-23T06:59:10;29.80;;;17.55;;
59571;SDS011;59406;45.602;11.904;2022-11-23T07:01:36;25.10;;;16.73;;
59571;SDS011;59406;45.602;11.904;2022-11-23T07:04:01;25.33;;;16.30;;
59571;SDS011;59406;45.602;11.904;2022-11-23T07:06:27;23.52;;;16.60;;
59571;SDS011;59406;45.602;11.904;2022-11-23T07:08:54;25.35;;;17.13;;
59571;SDS011;59406;45.602;11.904;2022-11-23T07:11:20;26.63;;;15.67;;
59571;SDS011;59406;45.602;11.904;2022-11-23T07:13:46;19.85;;;13.68;;
59571;SDS011;59406;45.602;11.904;2022-11-23T07:16:12;22.38;;;14.18;;
59571;SDS011;59406;45.602;11.904;2022-11-23T07:18:38;19.50;;;13.20;;
59571;SDS011;59406;45.602;11.904;2022-11-23T07:21:04;21.63;;;13.23;;
59571;SDS011;59406;45.602;11.904;2022-11-23T07:23:30;22.20;;;14.10;;
59571;SDS011;59406;45.602;11.904;2022-11-23T07:25:56;21.03;;;13.87;;
59571;SDS011;59406;45.602;11.904;2022-11-23T07:28:22;20.15;;;12.95;;
59571;SDS011;59406;45.602;11.904;2022-11-23T07:30:48;22.35;;;13.07;;
59571;SDS011;59406;45.602;11.904;2022-11-23T07:33:16;23.17;;;14.88;;
59571;SDS011;59406;45.602;11.904;2022-11-23T07:35:42;18.03;;;12.30;;
59571;SDS011;59406;45.602;11.904;2022-11-23T07:38:07;20.88;;;13.20;;
59571;SDS011;59406;45.602;11.904;2022-11-23T07:40:37;17.63;;;12.13;;
59571;SDS011;59406;45.602;11.904;2022-11-23T07:43:04;20.37;;;12.43;;
59571;SDS011;59406;45.602;11.904;2022-11-23T07:45:31;24.30;;;13.40;;
59571;SDS011;59406;45.602;11.904;2022-11-23T07:47:58;23.75;;;14.77;;
59571;SDS011;59406;45.602;11.904;2022-11-23T07:50:26;22.20;;;13.38;;
59571;SDS011;59406;45.602;11.904;2022-11-23T07:52:52;17.58;;;11.35;;
59571;SDS011;59406;45.602;11.904;2022-11-23T07:55:18;17.53;;;10.57;;
59571;SDS011;59406;45.602;11.904;2022-11-23T07:57:44;17.27;;;10.55;;
59571;SDS011;59406;45.602;11.904;2022-11-23T08:00:13;15.93;;;9.10;;
59571;SDS011;59406;45.602;11.904;2022-11-23T08:02:40;15.33;;;9.90;;
59571;SDS011;59406;45.602;11.904;2022-11-23T08:05:06;15.15;;;8.50;;
59571;SDS011;59406;45.602;11.904;2022-11-23T08:07:32;13.48;;;8.07;;
59571;SDS011;59406;45.602;11.904;2022-11-23T08:09:58;12.82;;;8.38;;
59571;SDS011;59406;45.602;11.904;2022-11-23T08:12:24;12.83;;;7.53;;
59571;SDS011;59406;45.602;11.904;2022-11-23T08:14:50;11.30;;;6.60;;
59571;SDS011;59406;45.602;11.904;2022-11-23T08:17:16;12.13;;;7.43;;
59571;SDS011;59406;45.602;11.904;2022-11-23T08:19:42;13.25;;;6.38;;
59571;SDS011;59406;45.602;11.904;2022-11-23T08:22:08;12.40;;;6.80;;
59571;SDS011;59406;45.602;11.904;2022-11-23T08:24:34;14.30;;;7.13;;
59571;SDS011;59406;45.602;11.904;2022-11-23T08:27:00;15.00;;;7.75;;
59571;SDS011;59406;45.602;11.904;2022-11-23T08:29:26;14.50;;;8.98;;
59571;SDS011;59406;45.602;11.904;2022-11-23T08:31:54;13.60;;;8.27;;
59571;SDS011;59406;45.602;11.904;2022-11-23T08:34:20;13.70;;;8.00;;
59571;SDS011;59406;45.602;11.904;2022-11-23T08:36:46;11.52;;;7.10;;
59571;SDS011;59406;45.602;11.904;2022-11-23T08:39:15;12.75;;;7.25;;
59571;SDS011;59406;45.602;11.904;2022-11-23T08:41:42;12.60;;;7.57;;
59571;SDS011;59406;45.602;11.904;2022-11-23T08:44:08;11.98;;;7.55;;
59571;SDS011;59406;45.602;11.904;2022-11-23T08:46:36;10.20;;;5.70;;
59571;SDS011;59406;45.602;11.904;2022-11-23T08:49:03;11.77;;;7.68;;
59571;SDS011;59406;45.602;11.904;2022-11-23T08:51:30;11.73;;;6.93;;
59571;SDS011;59406;45.602;11.904;2022-11-23T08:53:56;12.20;;;7.40;;
59571;SDS011;59406;45.602;11.904;2022-11-23T08:56:22;11.55;;;6.97;;
59571;SDS011;59406;45.602;11.904;2022-11-23T08:58:48;11.93;;;7.27;;
59571;SDS011;59406;45.602;11.904;2022-11-23T09:01:15;10.32;;;7.30;;
59571;SDS011;59406;45.602;11.904;2022-11-23T09:03:42;10.73;;;6.85;;
59571;SDS011;59406;45.602;11.904;2022-11-23T09:06:08;10.95;;;7.13;;
59571;SDS011;59406;45.602;11.904;2022-11-23T09:08:35;11.25;;;7.70;;
59571;SDS011;59406;45.602;11.904;2022-11-23T09:11:02;10.07;;;6.27;;
59571;SDS011;59406;45.602;11.904;2022-11-23T09:13:30;11.45;;;6.35;;
59571;SDS011;59406;45.602;11.904;2022-11-23T09:15:57;11.57;;;6.60;;
59571;SDS011;59406;45.602;11.904;2022-11-23T09:18:25;9.05;;;5.28;;
59571;SDS011;59406;45.602;11.904;2022-11-23T09:20:52;9.35;;;5.55;;
59571;SDS011;59406;45.602;11.904;2022-11-23T09:23:18;8.43;;;5.33;;
59571;SDS011;59406;45.602;11.904;2022-11-23T09:25:44;8.65;;;4.55;;
59571;SDS011;59406;45.602;11.904;2022-11-23T09:28:13;9.43;;;5.45;;
59571;SDS011;59406;45.602;11.904;2022-11-23T09:30:40;9.27;;;5.18;;
59571;SDS011;59406;45.602;11.904;2022-11-23T09:33:06;8.95;;;4.95;;
59571;SDS011;59406;45.602;11.904;2022-11-23T09:35:33;9.67;;;5.57;;
59571;SDS011;59406;45.602;11.904;2022-11-23T09:38:00;9.13;;;5.10;;
59571;SDS011;59406;45.602;11.904;2022-11-23T09:40:27;7.63;;;5.13;;
59571;SDS011;59406;45.602;11.904;2022-11-23T09:45:55;8.10;;;4.80;;
59571;SDS011;59406;45.602;11.904;2022-11-23T09:53:58;9.10;;;5.22;;
59571;SDS011;59406;45.602;11.904;2022-11-23T09:56:44;8.63;;;4.93;;
59571;SDS011;59406;45.602;11.904;2022-11-23T09:59:37;8.95;;;5.28;;
59571;SDS011;59406;45.602;11.904;2022-11-23T10:02:04;8.73;;;5.00;;
59571;SDS011;59406;45.602;11.904;2022-11-23T10:04:34;12.18;;;6.30;;
59571;SDS011;59406;45.602;11.904;2022-11-23T10:12:55;8.07;;;4.63;;
59571;SDS011;59406;45.602;11.904;2022-11-23T10:15:23;7.57;;;4.72;;
59571;SDS011;59406;45.602;11.904;2022-11-23T10:18:08;7.95;;;4.40;;
59571;SDS011;59406;45.602;11.904;2022-11-23T10:26:21;9.10;;;4.47;;
59571;SDS011;59406;45.602;11.904;2022-11-23T10:28:52;9.13;;;4.97;;
59571;SDS011;59406;45.602;11.904;2022-11-23T10:31:21;7.13;;;3.88;;
59571;SDS011;59406;45.602;11.904;2022-11-23T10:33:54;7.50;;;4.63;;
59571;SDS011;59406;45.602;11.904;2022-11-23T10:36:36;6.07;;;3.88;;
59571;SDS011;59406;45.602;11.904;2022-11-23T10:39:09;7.67;;;4.00;;
59571;SDS011;59406;45.602;11.904;2022-11-23T10:41:38;7.13;;;4.00;;
59571;SDS011;59406;45.602;11.904;2022-11-23T10:44:06;6.78;;;3.45;;
59571;SDS011;59406;45.602;11.904;2022-11-23T10:46:47;7.95;;;3.95;;
59571;SDS011;59406;45.602;11.904;2022-11-23T10:49:18;6.43;;;3.37;;
59571;SDS011;59406;45.602;11.904;2022-11-23T10:51:49;7.10;;;3.13;;
59571;SDS011;59406;45.602;11.904;2022-11-23T10:56:57;6.07;;;2.88;;
59571;SDS011;59406;45.602;11.904;2022-11-23T10:59:30;12.15;;;3.08;;
59571;SDS011;59406;45.602;11.904;2022-11-23T11:04:39;6.83;;;3.70;;
59571;SDS011;59406;45.602;11.904;2022-11-23T11:09:50;5.60;;;2.55;;
59571;SDS011;59406;45.602;11.904;2022-11-23T11:12:18;8.88;;;3.97;;
59571;SDS011;59406;45.602;11.904;2022-11-23T11:14:54;7.18;;;2.67;;
59571;SDS011;59406;45.602;11.904;2022-11-23T11:17:26;5.37;;;3.00;;
59571;SDS011;59406;45.602;11.904;2022-11-23T11:19:56;7.40;;;3.50;;
59571;SDS011;59406;45.602;11.904;2022-11-23T11:22:32;7.65;;;3.28;;
59571;SDS011;59406;45.602;11.904;2022-11-23T11:25:02;6.25;;;2.58;;
59571;SDS011;59406;45.602;11.904;2022-11-23T11:27:29;5.38;;;2.50;;
59571;SDS011;59406;45.602;11.904;2022-11-23T11:30:02;4.43;;;2.07;;
59571;SDS011;59406;45.602;11.904;2022-11-23T11:32:44;7.20;;;2.85;;
59571;SDS011;59406;45.602;11.904;2022-11-23T11:35:21;4.65;;;1.55;;
59571;SDS011;59406;45.602;11.904;2022-11-23T11:37:53;4.55;;;2.03;;
59571;SDS011;59406;45.602;11.904;2022-11-23T11:40:28;4.90;;;1.77;;
59571;SDS011;59406;45.602;11.904;2022-11-23T11:43:03;4.20;;;1.70;;
59571;SDS011;59406;45.602;11.904;2022-11-23T11:45:52;5.60;;;2.28;;
59571;SDS011;59406;45.602;11.904;2022-11-23T11:48:23;6.47;;;3.00;;
59571;SDS011;59406;45.602;11.904;2022-11-23T11:53:41;7.63;;;3.30;;
59571;SDS011;59406;45.602;11.904;2022-11-23T12:04:19;2.83;;;0.60;;
59571;SDS011;59406;45.602;11.904;2022-11-23T12:07:17;2.63;;;0.43;;
59571;SDS011;59406;45.602;11.904;2022-11-23T12:09:56;4.43;;;1.00;;
59571;SDS011;59406;45.602;11.904;2022-11-23T12:12:28;2.95;;;0.70;;
59571;SDS011;59406;45.602;11.904;2022-11-23T12:14:56;3.58;;;0.40;;
59571;SDS011;59406;45.602;11.904;2022-11-23T12:20:20;2.78;;;0.65;;
59571;SDS011;59406;45.602;11.904;2022-11-23T12:25:48;2.38;;;0.40;;
59571;SDS011;59406;45.602;11.904;2022-11-23T12:28:47;3.75;;;0.70;;
59571;SDS011;59406;45.602;11.904;2022-11-23T12:31:46;2.80;;;0.50;;
59571;SDS011;59406;45.602;11.904;2022-11-23T12:39:56;5.50;;;2.00;;
59571;SDS011;59406;45.602;11.904;2022-11-23T12:42:48;3.72;;;1.10;;
59571;SDS011;59406;45.602;11.904;2022-11-23T12:45:46;6.88;;;2.60;;
59571;SDS011;59406;45.602;11.904;2022-11-23T12:48:24;3.90;;;1.17;;
59571;SDS011;59406;45.602;11.904;2022-11-23T12:59:07;3.30;;;0.80;;
59571;SDS011;59406;45.602;11.904;2022-11-23T13:01:37;4.32;;;1.20;;
59571;SDS011;59406;45.602;11.904;2022-11-23T13:09:26;4.18;;;1.08;;
59571;SDS011;59406;45.602;11.904;2022-11-23T13:14:45;4.47;;;1.00;;
59571;SDS011;59406;45.602;11.904;2022-11-23T13:23:06;4.45;;;1.50;;
59571;SDS011;59406;45.602;11.904;2022-11-23T13:25:32;3.70;;;1.17;;
59571;SDS011;59406;45.602;11.904;2022-11-23T13:27:59;3.60;;;1.10;;
59571;SDS011;59406;45.602;11.904;2022-11-23T13:30:46;3.28;;;1.00;;
59571;SDS011;59406;45.602;11.904;2022-11-23T13:33:37;3.45;;;0.90;;
59571;SDS011;59406;45.602;11.904;2022-11-23T13:36:03;3.67;;;0.95;;
59571;SDS011;59406;45.602;11.904;2022-11-23T13:38:42;4.88;;;1.60;;
59571;SDS011;59406;45.602;11.904;2022-11-23T13:47:00;3.95;;;1.20;;
59571;SDS011;59406;45.602;11.904;2022-11-23T13:54:58;3.90;;;1.30;;
59571;SDS011;59406;45.602;11.904;2022-11-23T13:57:26;8.00;;;4.03;;
59571;SDS011;59406;45.602;11.904;2022-11-23T13:59:52;6.10;;;2.40;;
59571;SDS011;59406;45.602;11.904;2022-11-23T14:02:23;4.30;;;1.25;;
59571;SDS011;59406;45.602;11.904;2022-11-23T14:04:51;3.72;;;1.17;;
59571;SDS011;59406;45.602;11.904;2022-11-23T14:07:55;3.47;;;0.90;;
59571;SDS011;59406;45.602;11.904;2022-11-23T14:10:24;3.88;;;1.38;;
59571;SDS011;59406;45.602;11.904;2022-11-23T14:12:55;5.78;;;1.23;;
59571;SDS011;59406;45.602;11.904;2022-11-23T14:15:30;4.50;;;1.40;;
59571;SDS011;59406;45.602;11.904;2022-11-23T14:40:29;5.68;;;2.05;;
59571;SDS011;59406;45.602;11.904;2022-11-23T14:43:18;5.43;;;2.33;;
59571;SDS011;59406;45.602;11.904;2022-11-23T14:45:46;5.57;;;1.58;;
59571;SDS011;59406;45.602;11.904;2022-11-23T14:48:18;5.43;;;1.73;;
59571;SDS011;59406;45.602;11.904;2022-11-23T14:50:55;4.72;;;1.60;;
59571;SDS011;59406;45.602;11.904;2022-11-23T14:53:28;3.97;;;1.38;;
59571;SDS011;59406;45.602;11.904;2022-11-23T14:55:57;4.57;;;1.40;;
59571;SDS011;59406;45.602;11.904;2022-11-23T14:58:24;4.10;;;1.47;;
59571;SDS011;59406;45.602;11.904;2022-11-23T15:00:52;3.65;;;1.05;;
59571;SDS011;59406;45.602;11.904;2022-11-23T15:03:25;4.53;;;1.70;;
59571;SDS011;59406;45.602;11.904;2022-11-23T15:06:15;6.18;;;2.00;;
59571;SDS011;59406;45.602;11.904;2022-11-23T15:08:49;5.10;;;2.20;;
59571;SDS011;59406;45.602;11.904;2022-11-23T15:11:24;5.30;;;1.63;;
59571;SDS011;59406;45.602;11.904;2022-11-23T15:13:53;4.13;;;1.13;;
59571;SDS011;59406;45.602;11.904;2022-11-23T15:16:22;3.92;;;1.35;;
59571;SDS011;59406;45.602;11.904;2022-11-23T15:18:47;5.35;;;1.50;;
59571;SDS011;59406;45.602;11.904;2022-11-23T15:21:25;4.67;;;1.27;;
59571;SDS011;59406;45.602;11.904;2022-11-23T15:23:52;4.65;;;1.63;;
59571;SDS011;59406;45.602;11.904;2022-11-23T15:28:48;3.70;;;1.00;;
59571;SDS011;59406;45.602;11.904;2022-11-23T15:33:49;4.17;;;1.13;;
59571;SDS011;59406;45.602;11.904;2022-11-23T15:36:23;4.93;;;1.30;;
59571;SDS011;59406;45.602;11.904;2022-11-23T15:38:54;4.65;;;1.15;;
59571;SDS011;59406;45.602;11.904;2022-11-23T15:41:22;3.40;;;0.90;;
59571;SDS011;59406;45.602;11.904;2022-11-23T15:43:54;4.13;;;1.13;;
59571;SDS011;59406;45.602;11.904;2022-11-23T15:46:27;4.73;;;1.30;;
59571;SDS011;59406;45.602;11.904;2022-11-23T15:49:00;5.18;;;1.88;;
59571;SDS011;59406;45.602;11.904;2022-11-23T15:51:38;5.28;;;1.80;;
59571;SDS011;59406;45.602;11.904;2022-11-23T15:54:20;5.47;;;2.58;;
59571;SDS011;59406;45.602;11.904;2022-11-23T15:56:50;5.93;;;2.47;;
59571;SDS011;59406;45.602;11.904;2022-11-23T16:02:22;9.75;;;3.13;;
59571;SDS011;59406;45.602;11.904;2022-11-23T16:10:32;8.50;;;3.38;;
59571;SDS011;59406;45.602;11.904;2022-11-23T16:13:03;8.00;;;4.30;;
59571;SDS011;59406;45.602;11.904;2022-11-23T16:18:05;8.82;;;3.28;;
59571;SDS011;59406;45.602;11.904;2022-11-23T16:20:48;6.07;;;2.63;;
59571;SDS011;59406;45.602;11.904;2022-11-23T16:23:23;8.13;;;2.97;;
59571;SDS011;59406;45.602;11.904;2022-11-23T16:25:56;11.37;;;5.37;;
59571;SDS011;59406;45.602;11.904;2022-11-23T16:28:26;7.75;;;3.90;;
59571;SDS011;59406;45.602;11.904;2022-11-23T16:30:55;5.45;;;2.60;;
59571;SDS011;59406;45.602;11.904;2022-11-23T16:33:22;6.43;;;3.03;;
59571;SDS011;59406;45.602;11.904;2022-11-23T16:35:48;7.13;;;3.13;;
59571;SDS011;59406;45.602;11.904;2022-11-23T16:38:15;5.60;;;2.70;;
59571;SDS011;59406;45.602;11.904;2022-11-23T16:40:41;5.85;;;2.40;;
59571;SDS011;59406;45.602;11.904;2022-11-23T16:43:11;7.63;;;2.60;;
59571;SDS011;59406;45.602;11.904;2022-11-23T16:45:38;7.25;;;2.55;;
59571;SDS011;59406;45.602;11.904;2022-11-23T16:50:52;7.73;;;3.57;;
59571;SDS011;59406;45.602;11.904;2022-11-23T16:53:19;7.95;;;3.38;;
59571;SDS011;59406;45.602;11.904;2022-11-23T16:55:45;6.45;;;3.03;;